sensor_id;sensor_type;location;lat;lon;timestamp;pressure;altitude;pressure_sealevel;temperature;humidity
84055;BME280;74141;51.504;7.122;2024-01-11T00:01:37;102685.81;;;-6.61;91.60
84055;BME280;74141;51.504;7.122;2024-01-11T00:04:02;102679.97;;;-6.46;90.65
84055;BME280;74141;51.504;7.122;2024-01-11T00:06:27;102681.16;;;-6.54;89.73
84055;BME280;74141;51.504;7.122;2024-01-11T00:08:52;102683.16;;;-6.63;90.81
84055;BME280;74141;51.504;7.122;2024-01-11T00:11:19;102692.00;;;-6.72;91.47
84055;BME280;74141;51.504;7.122;2024-01-11T00:13:44;102682.34;;;-6.76;90.91
84055;BME280;74141;51.504;7.122;2024-01-11T00:16:09;102684.25;;;-6.87;91.33
84055;BME280;74141;51.504;7.122;2024-01-11T00:18:34;102681.50;;;-6.90;91.78
84055;BME280;74141;51.504;7.122;2024-01-11T00:21:00;102674.81;;;-7.01;93.21
84055;BME280;74141;51.504;7.122;2024-01-11T00:23:25;102681.94;;;-6.97;93.23
84055;BME280;74141;51.504;7.122;2024-01-11T00:25:51;102676.19;;;-6.93;93.29
84055;BME280;74141;51.504;7.122;2024-01-11T00:28:16;102673.16;;;-7.00;92.40
84055;BME280;74141;51.504;7.122;2024-01-11T00:30:41;102665.53;;;-7.13;93.04
84055;BME280;74141;51.504;7.122;2024-01-11T00:33:07;102663.66;;;-7.29;92.86
84055;BME280;74141;51.504;7.122;2024-01-11T00:35:32;102664.69;;;-7.40;94.05
84055;BME280;74141;51.504;7.122;2024-01-11T00:37:57;102670.59;;;-7.54;93.16
84055;BME280;74141;51.504;7.122;2024-01-11T00:40:22;102666.66;;;-7.62;95.08
84055;BME280;74141;51.504;7.122;2024-01-11T00:42:48;102670.00;;;-7.63;95.18
84055;BME280;74141;51.504;7.122;2024-01-11T00:45:13;102673.13;;;-7.54;96.61
84055;BME280;74141;51.504;7.122;2024-01-11T00:47:39;102680.63;;;-7.57;96.13
84055;BME280;74141;51.504;7.122;2024-01-11T00:50:04;102669.78;;;-7.66;96.63
84055;BME280;74141;51.504;7.122;2024-01-11T00:52:30;102669.00;;;-7.78;95.11
84055;BME280;74141;51.504;7.122;2024-01-11T00:54:55;102669.28;;;-7.86;96.66
84055;BME280;74141;51.504;7.122;2024-01-11T00:57:20;102676.66;;;-7.91;95.79
84055;BME280;74141;51.504;7.122;2024-01-11T00:59:46;102676.47;;;-7.94;95.31
84055;BME280;74141;51.504;7.122;2024-01-11T01:02:11;102671.63;;;-8.02;96.35
84055;BME280;74141;51.504;7.122;2024-01-11T01:04:39;102668.38;;;-8.13;96.67
84055;BME280;74141;51.504;7.122;2024-01-11T01:07:05;102674.88;;;-8.18;97.18
84055;BME280;74141;51.504;7.122;2024-01-11T01:09:31;102671.16;;;-8.23;96.39
84055;BME280;74141;51.504;7.122;2024-01-11T01:11:56;102680.06;;;-8.29;96.29
84055;BME280;74141;51.504;7.122;2024-01-11T01:14:21;102681.97;;;-8.27;95.82
84055;BME280;74141;51.504;7.122;2024-01-11T01:16:46;102686.97;;;-8.15;96.30
84055;BME280;74141;51.504;7.122;2024-01-11T01:19:12;102688.44;;;-8.06;96.84
84055;BME280;74141;51.504;7.122;2024-01-11T01:21:37;102685.88;;;-8.06;96.10
84055;BME280;74141;51.504;7.122;2024-01-11T01:24:03;102682.16;;;-8.11;97.17
84055;BME280;74141;51.504;7.122;2024-01-11T01:26:28;102685.84;;;-8.19;96.24
84055;BME280;74141;51.504;7.122;2024-01-11T01:28:53;102673.28;;;-8.29;97.43
84055;BME280;74141;51.504;7.122;2024-01-11T01:31:20;102681.75;;;-8.17;96.42
84055;BME280;74141;51.504;7.122;2024-01-11T01:33:45;102683.50;;;-8.16;97.20
84055;BME280;74141;51.504;7.122;2024-01-11T01:36:11;102695.50;;;-8.15;96.88
84055;BME280;74141;51.504;7.122;2024-01-11T01:38:36;102694.84;;;-8.12;97.33
84055;BME280;74141;51.504;7.122;2024-01-11T01:41:01;102695.94;;;-7.96;97.86
84055;BME280;74141;51.504;7.122;2024-01-11T01:43:27;102685.03;;;-7.93;97.90
84055;BME280;74141;51.504;7.122;2024-01-11T01:45:53;102684.34;;;-7.91;96.39
84055;BME280;74141;51.504;7.122;2024-01-11T01:48:19;102684.53;;;-7.88;95.88
84055;BME280;74141;51.504;7.122;2024-01-11T01:50:46;102669.59;;;-7.95;96.94
84055;BME280;74141;51.504;7.122;2024-01-11T01:53:17;102676.47;;;-7.81;97.31
84055;BME280;74141;51.504;7.122;2024-01-11T01:55:43;102684.63;;;-7.86;95.61
84055;BME280;74141;51.504;7.122;2024-01-11T01:58:09;102679.22;;;-7.91;96.21
84055;BME280;74141;51.504;7.122;2024-01-11T02:00:34;102675.19;;;-8.00;95.52
84055;BME280;74141;51.504;7.122;2024-01-11T02:03:00;102681.34;;;-8.10;96.19
84055;BME280;74141;51.504;7.122;2024-01-11T02:05:25;102685.13;;;-8.05;95.76
84055;BME280;74141;51.504;7.122;2024-01-11T02:07:51;102687.09;;;-7.88;95.97
84055;BME280;74141;51.504;7.122;2024-01-11T02:10:17;102686.50;;;-7.84;97.05
84055;BME280;74141;51.504;7.122;2024-01-11T02:12:43;102681.03;;;-7.64;95.83
84055;BME280;74141;51.504;7.122;2024-01-11T02:15:11;102677.56;;;-7.64;96.67
84055;BME280;74141;51.504;7.122;2024-01-11T02:17:39;102682.31;;;-7.44;94.90
84055;BME280;74141;51.504;7.122;2024-01-11T02:20:12;102691.53;;;-7.33;93.83
84055;BME280;74141;51.504;7.122;2024-01-11T02:22:42;102685.53;;;-7.21;93.27
84055;BME280;74141;51.504;7.122;2024-01-11T02:25:11;102683.47;;;-7.52;93.37
84055;BME280;74141;51.504;7.122;2024-01-11T02:27:49;102684.47;;;-7.63;93.84
84055;BME280;74141;51.504;7.122;2024-01-11T02:30:15;102681.91;;;-7.63;94.97
84055;BME280;74141;51.504;7.122;2024-01-11T02:32:43;102690.97;;;-7.68;94.08
84055;BME280;74141;51.504;7.122;2024-01-11T02:35:18;102690.66;;;-7.73;95.71
84055;BME280;74141;51.504;7.122;2024-01-11T02:37:44;102689.47;;;-7.78;93.91
84055;BME280;74141;51.504;7.122;2024-01-11T02:40:13;102682.69;;;-7.77;94.98
84055;BME280;74141;51.504;7.122;2024-01-11T02:42:40;102684.53;;;-7.75;96.42
84055;BME280;74141;51.504;7.122;2024-01-11T02:45:14;102693.63;;;-7.67;94.62
84055;BME280;74141;51.504;7.122;2024-01-11T02:47:39;102693.50;;;-7.68;96.37
84055;BME280;74141;51.504;7.122;2024-01-11T02:50:14;102691.34;;;-7.62;94.37
84055;BME280;74141;51.504;7.122;2024-01-11T02:52:39;102682.03;;;-7.62;95.46
84055;BME280;74141;51.504;7.122;2024-01-11T02:55:13;102686.63;;;-7.69;93.52
84055;BME280;74141;51.504;7.122;2024-01-11T02:57:39;102690.47;;;-7.76;94.38
84055;BME280;74141;51.504;7.122;2024-01-11T03:00:05;102694.13;;;-7.72;94.23
84055;BME280;74141;51.504;7.122;2024-01-11T03:02:30;102683.09;;;-7.71;95.35
84055;BME280;74141;51.504;7.122;2024-01-11T03:04:56;102687.28;;;-7.85;95.70
84055;BME280;74141;51.504;7.122;2024-01-11T03:07:21;102676.44;;;-8.07;94.26
84055;BME280;74141;51.504;7.122;2024-01-11T03:09:46;102690.00;;;-8.21;94.54
84055;BME280;74141;51.504;7.122;2024-01-11T03:12:11;102693.63;;;-8.30;95.29
84055;BME280;74141;51.504;7.122;2024-01-11T03:14:37;102692.53;;;-8.34;94.47
84055;BME280;74141;51.504;7.122;2024-01-11T03:17:02;102694.31;;;-8.20;95.56
84055;BME280;74141;51.504;7.122;2024-01-11T03:19:27;102691.38;;;-8.26;96.03
84055;BME280;74141;51.504;7.122;2024-01-11T03:21:53;102685.97;;;-8.30;95.67
84055;BME280;74141;51.504;7.122;2024-01-11T03:24:18;102686.06;;;-8.29;96.77
84055;BME280;74141;51.504;7.122;2024-01-11T03:26:43;102688.81;;;-8.39;95.47
84055;BME280;74141;51.504;7.122;2024-01-11T03:29:08;102692.13;;;-8.40;97.23
84055;BME280;74141;51.504;7.122;2024-01-11T03:31:34;102699.94;;;-8.50;97.05
84055;BME280;74141;51.504;7.122;2024-01-11T03:33:59;102700.22;;;-8.59;96.53
84055;BME280;74141;51.504;7.122;2024-01-11T03:36:24;102708.16;;;-8.67;95.49
84055;BME280;74141;51.504;7.122;2024-01-11T03:38:50;102709.28;;;-8.75;96.50
84055;BME280;74141;51.504;7.122;2024-01-11T03:41:15;102708.09;;;-8.80;95.35
84055;BME280;74141;51.504;7.122;2024-01-11T03:43:41;102715.53;;;-8.83;96.06
84055;BME280;74141;51.504;7.122;2024-01-11T03:46:06;102713.75;;;-8.84;97.44
84055;BME280;74141;51.504;7.122;2024-01-11T03:48:31;102715.16;;;-8.76;96.39
84055;BME280;74141;51.504;7.122;2024-01-11T03:50:57;102721.34;;;-8.73;97.79
84055;BME280;74141;51.504;7.122;2024-01-11T03:53:22;102720.91;;;-8.67;96.46
84055;BME280;74141;51.504;7.122;2024-01-11T03:55:47;102703.59;;;-8.71;96.59
84055;BME280;74141;51.504;7.122;2024-01-11T03:58:13;102714.69;;;-8.71;97.29
84055;BME280;74141;51.504;7.122;2024-01-11T04:00:39;102712.97;;;-8.83;96.79
84055;BME280;74141;51.504;7.122;2024-01-11T04:03:06;102722.63;;;-8.79;96.78
84055;BME280;74141;51.504;7.122;2024-01-11T04:05:31;102718.38;;;-8.67;97.04
84055;BME280;74141;51.504;7.122;2024-01-11T04:07:57;102727.22;;;-8.37;97.87
84055;BME280;74141;51.504;7.122;2024-01-11T04:10:22;102733.94;;;-8.51;95.72
84055;BME280;74141;51.504;7.122;2024-01-11T04:12:47;102721.97;;;-8.52;96.86
84055;BME280;74141;51.504;7.122;2024-01-11T04:15:13;102717.72;;;-8.52;97.14
84055;BME280;74141;51.504;7.122;2024-01-11T04:17:39;102710.06;;;-8.52;96.81
84055;BME280;74141;51.504;7.122;2024-01-11T04:20:06;102719.75;;;-8.59;96.96
84055;BME280;74141;51.504;7.122;2024-01-11T04:22:31;102718.09;;;-8.59;96.43
84055;BME280;74141;51.504;7.122;2024-01-11T04:24:57;102716.03;;;-8.64;96.86
84055;BME280;74141;51.504;7.122;2024-01-11T04:27:22;102717.56;;;-8.66;96.16
84055;BME280;74141;51.504;7.122;2024-01-11T04:29:47;102729.00;;;-8.73;95.96
84055;BME280;74141;51.504;7.122;2024-01-11T04:32:12;102720.63;;;-8.83;96.26
84055;BME280;74141;51.504;7.122;2024-01-11T04:34:38;102730.63;;;-8.86;97.83
84055;BME280;74141;51.504;7.122;2024-01-11T04:37:03;102732.53;;;-8.95;97.18
84055;BME280;74141;51.504;7.122;2024-01-11T04:39:28;102731.00;;;-9.05;96.65
84055;BME280;74141;51.504;7.122;2024-01-11T04:41:53;102732.56;;;-9.07;96.24
84055;BME280;74141;51.504;7.122;2024-01-11T04:44:19;102725.44;;;-8.99;97.28
84055;BME280;74141;51.504;7.122;2024-01-11T04:46:44;102729.41;;;-8.91;98.72
84055;BME280;74141;51.504;7.122;2024-01-11T04:49:09;102723.84;;;-8.86;97.17
84055;BME280;74141;51.504;7.122;2024-01-11T04:51:35;102732.75;;;-8.92;97.59
84055;BME280;74141;51.504;7.122;2024-01-11T04:54:00;102738.53;;;-9.06;96.38
84055;BME280;74141;51.504;7.122;2024-01-11T04:56:26;102754.88;;;-9.04;97.32
84055;BME280;74141;51.504;7.122;2024-01-11T04:58:51;102753.19;;;-8.92;96.92
84055;BME280;74141;51.504;7.122;2024-01-11T05:01:17;102745.75;;;-8.89;97.04
84055;BME280;74141;51.504;7.122;2024-01-11T05:03:43;102749.50;;;-8.96;97.19
84055;BME280;74141;51.504;7.122;2024-01-11T05:06:15;102763.25;;;-8.82;98.47
84055;BME280;74141;51.504;7.122;2024-01-11T05:08:40;102761.78;;;-8.67;97.13
84055;BME280;74141;51.504;7.122;2024-01-11T05:11:06;102751.09;;;-8.62;98.27
84055;BME280;74141;51.504;7.122;2024-01-11T05:13:31;102752.69;;;-8.75;97.05
84055;BME280;74141;51.504;7.122;2024-01-11T05:15:56;102750.91;;;-8.76;96.74
84055;BME280;74141;51.504;7.122;2024-01-11T05:18:21;102771.31;;;-8.65;96.85
84055;BME280;74141;51.504;7.122;2024-01-11T05:20:47;102771.59;;;-8.48;97.33
84055;BME280;74141;51.504;7.122;2024-01-11T05:23:12;102776.22;;;-8.31;95.81
84055;BME280;74141;51.504;7.122;2024-01-11T05:25:37;102760.59;;;-8.10;94.43
84055;BME280;74141;51.504;7.122;2024-01-11T05:28:03;102751.63;;;-7.92;94.57
84055;BME280;74141;51.504;7.122;2024-01-11T05:30:29;102756.22;;;-7.99;95.23
84055;BME280;74141;51.504;7.122;2024-01-11T05:32:55;102774.63;;;-7.92;94.34
84055;BME280;74141;51.504;7.122;2024-01-11T05:35:21;102772.97;;;-7.91;94.00
84055;BME280;74141;51.504;7.122;2024-01-11T05:37:48;102780.94;;;-7.87;93.21
84055;BME280;74141;51.504;7.122;2024-01-11T05:40:14;102788.25;;;-7.80;92.99
84055;BME280;74141;51.504;7.122;2024-01-11T05:42:39;102789.47;;;-7.62;91.94
84055;BME280;74141;51.504;7.122;2024-01-11T05:45:05;102789.25;;;-7.65;92.23
84055;BME280;74141;51.504;7.122;2024-01-11T05:47:30;102789.19;;;-7.53;92.14
84055;BME280;74141;51.504;7.122;2024-01-11T05:49:56;102789.97;;;-7.41;91.36
84055;BME280;74141;51.504;7.122;2024-01-11T05:52:21;102777.53;;;-7.61;90.97
84055;BME280;74141;51.504;7.122;2024-01-11T05:54:46;102795.63;;;-7.71;92.98
84055;BME280;74141;51.504;7.122;2024-01-11T05:57:12;102787.75;;;-7.74;92.28
84055;BME280;74141;51.504;7.122;2024-01-11T05:59:37;102781.13;;;-7.84;93.38
84055;BME280;74141;51.504;7.122;2024-01-11T06:02:07;102785.91;;;-8.01;92.56
84055;BME280;74141;51.504;7.122;2024-01-11T06:04:33;102787.13;;;-8.21;93.81
84055;BME280;74141;51.504;7.122;2024-01-11T06:06:58;102786.00;;;-8.37;93.91
84055;BME280;74141;51.504;7.122;2024-01-11T06:09:24;102794.72;;;-8.22;94.28
84055;BME280;74141;51.504;7.122;2024-01-11T06:11:49;102775.31;;;-8.19;94.00
84055;BME280;74141;51.504;7.122;2024-01-11T06:14:15;102767.06;;;-8.15;94.87
84055;BME280;74141;51.504;7.122;2024-01-11T06:16:40;102757.44;;;-8.19;93.70
84055;BME280;74141;51.504;7.122;2024-01-11T06:19:05;102761.94;;;-8.15;93.57
84055;BME280;74141;51.504;7.122;2024-01-11T06:21:32;102756.28;;;-8.24;94.86
84055;BME280;74141;51.504;7.122;2024-01-11T06:23:57;102773.34;;;-8.36;95.58
84055;BME280;74141;51.504;7.122;2024-01-11T06:26:22;102771.69;;;-8.47;95.49
84055;BME280;74141;51.504;7.122;2024-01-11T06:28:48;102767.69;;;-8.43;94.82
84055;BME280;74141;51.504;7.122;2024-01-11T06:31:13;102776.16;;;-8.56;94.52
84055;BME280;74141;51.504;7.122;2024-01-11T06:33:38;102764.88;;;-8.71;94.53
84055;BME280;74141;51.504;7.122;2024-01-11T06:36:07;102771.34;;;-8.76;94.52
84055;BME280;74141;51.504;7.122;2024-01-11T06:38:33;102783.75;;;-8.69;95.46
84055;BME280;74141;51.504;7.122;2024-01-11T06:40:59;102806.38;;;-8.62;94.95
84055;BME280;74141;51.504;7.122;2024-01-11T06:43:25;102802.94;;;-8.51;94.94
84055;BME280;74141;51.504;7.122;2024-01-11T06:45:50;102799.47;;;-8.52;95.60
84055;BME280;74141;51.504;7.122;2024-01-11T06:48:15;102797.97;;;-8.61;95.60
84055;BME280;74141;51.504;7.122;2024-01-11T06:50:41;102774.88;;;-8.74;96.11
84055;BME280;74141;51.504;7.122;2024-01-11T06:53:06;102772.75;;;-8.57;96.78
84055;BME280;74141;51.504;7.122;2024-01-11T06:55:32;102782.75;;;-8.71;95.01
84055;BME280;74141;51.504;7.122;2024-01-11T06:57:57;102777.88;;;-8.80;96.24
84055;BME280;74141;51.504;7.122;2024-01-11T07:00:23;102782.25;;;-8.90;96.11
84055;BME280;74141;51.504;7.122;2024-01-11T07:02:48;102779.50;;;-9.05;95.89
84055;BME280;74141;51.504;7.122;2024-01-11T07:05:13;102804.91;;;-9.06;95.39
84055;BME280;74141;51.504;7.122;2024-01-11T07:07:39;102802.91;;;-8.99;96.54
84055;BME280;74141;51.504;7.122;2024-01-11T07:10:04;102812.88;;;-8.90;96.62
84055;BME280;74141;51.504;7.122;2024-01-11T07:12:30;102820.88;;;-8.86;95.62
84055;BME280;74141;51.504;7.122;2024-01-11T07:14:56;102829.75;;;-8.92;96.74
84055;BME280;74141;51.504;7.122;2024-01-11T07:17:21;102835.53;;;-9.06;94.83
84055;BME280;74141;51.504;7.122;2024-01-11T07:19:48;102829.00;;;-9.14;95.69
84055;BME280;74141;51.504;7.122;2024-01-11T07:22:13;102834.00;;;-9.16;96.17
84055;BME280;74141;51.504;7.122;2024-01-11T07:24:38;102807.25;;;-9.32;95.82
84055;BME280;74141;51.504;7.122;2024-01-11T07:27:05;102828.00;;;-9.16;96.01
84055;BME280;74141;51.504;7.122;2024-01-11T07:29:30;102840.63;;;-9.06;96.50
84055;BME280;74141;51.504;7.122;2024-01-11T07:31:56;102824.44;;;-8.95;97.46
84055;BME280;74141;51.504;7.122;2024-01-11T07:34:21;102818.19;;;-8.87;98.09
84055;BME280;74141;51.504;7.122;2024-01-11T07:36:46;102815.09;;;-8.83;98.34
84055;BME280;74141;51.504;7.122;2024-01-11T07:39:12;102822.66;;;-8.85;97.41
84055;BME280;74141;51.504;7.122;2024-01-11T07:41:37;102820.00;;;-8.86;97.31
84055;BME280;74141;51.504;7.122;2024-01-11T07:44:02;102822.56;;;-8.86;96.16
84055;BME280;74141;51.504;7.122;2024-01-11T07:46:28;102824.19;;;-8.87;95.92
84055;BME280;74141;51.504;7.122;2024-01-11T07:48:54;102815.78;;;-8.97;95.61
84055;BME280;74141;51.504;7.122;2024-01-11T07:51:19;102822.53;;;-8.98;95.36
84055;BME280;74141;51.504;7.122;2024-01-11T07:53:45;102827.00;;;-8.95;95.65
84055;BME280;74141;51.504;7.122;2024-01-11T07:56:10;102803.22;;;-8.83;96.21
84055;BME280;74141;51.504;7.122;2024-01-11T07:58:35;102798.88;;;-8.72;96.61
84055;BME280;74141;51.504;7.122;2024-01-11T08:01:03;102805.63;;;-8.61;97.51
84055;BME280;74141;51.504;7.122;2024-01-11T08:03:28;102812.25;;;-8.52;95.72
84055;BME280;74141;51.504;7.122;2024-01-11T08:05:55;102817.09;;;-8.43;96.59
84055;BME280;74141;51.504;7.122;2024-01-11T08:08:20;102806.75;;;-8.33;97.19
84055;BME280;74141;51.504;7.122;2024-01-11T08:10:47;102804.84;;;-8.24;96.45
84055;BME280;74141;51.504;7.122;2024-01-11T08:13:12;102800.59;;;-8.10;95.60
84055;BME280;74141;51.504;7.122;2024-01-11T08:15:38;102818.16;;;-8.03;96.11
84055;BME280;74141;51.504;7.122;2024-01-11T08:18:04;102810.81;;;-7.99;96.05
84055;BME280;74141;51.504;7.122;2024-01-11T08:20:30;102811.78;;;-7.97;95.03
84055;BME280;74141;51.504;7.122;2024-01-11T08:22:55;102817.25;;;-7.79;95.11
84055;BME280;74141;51.504;7.122;2024-01-11T08:25:21;102819.66;;;-7.69;93.79
84055;BME280;74141;51.504;7.122;2024-01-11T08:27:48;102830.22;;;-7.52;93.24
84055;BME280;74141;51.504;7.122;2024-01-11T08:30:13;102828.09;;;-7.33;92.46
84055;BME280;74141;51.504;7.122;2024-01-11T08:32:39;102827.59;;;-7.14;93.23
84055;BME280;74141;51.504;7.122;2024-01-11T08:35:05;102824.75;;;-7.06;91.86
84055;BME280;74141;51.504;7.122;2024-01-11T08:37:31;102829.06;;;-6.92;91.50
84055;BME280;74141;51.504;7.122;2024-01-11T08:39:57;102833.81;;;-6.72;91.14
84055;BME280;74141;51.504;7.122;2024-01-11T08:42:22;102837.88;;;-6.48;90.13
84055;BME280;74141;51.504;7.122;2024-01-11T08:44:48;102841.09;;;-5.96;90.08
84055;BME280;74141;51.504;7.122;2024-01-11T08:47:13;102846.81;;;-5.58;87.78
84055;BME280;74141;51.504;7.122;2024-01-11T08:49:39;102848.66;;;-5.41;86.31
84055;BME280;74141;51.504;7.122;2024-01-11T08:52:05;102849.91;;;-5.20;86.19
84055;BME280;74141;51.504;7.122;2024-01-11T08:54:31;102848.41;;;-5.17;85.24
84055;BME280;74141;51.504;7.122;2024-01-11T08:57:04;102828.75;;;-5.02;85.69
84055;BME280;74141;51.504;7.122;2024-01-11T08:59:29;102839.34;;;-5.10;85.07
84055;BME280;74141;51.504;7.122;2024-01-11T09:01:55;102848.50;;;-5.01;84.97
84055;BME280;74141;51.504;7.122;2024-01-11T09:04:20;102849.63;;;-4.81;84.95
84055;BME280;74141;51.504;7.122;2024-01-11T09:06:45;102858.41;;;-4.47;84.79
84055;BME280;74141;51.504;7.122;2024-01-11T09:09:11;102839.44;;;-4.33;83.51
84055;BME280;74141;51.504;7.122;2024-01-11T09:11:39;102846.88;;;-4.23;83.01
84055;BME280;74141;51.504;7.122;2024-01-11T09:14:06;102852.22;;;-4.04;82.94
84055;BME280;74141;51.504;7.122;2024-01-11T09:16:31;102850.91;;;-3.96;82.44
84055;BME280;74141;51.504;7.122;2024-01-11T09:18:58;102856.88;;;-3.97;83.77
84055;BME280;74141;51.504;7.122;2024-01-11T09:21:25;102852.44;;;-3.83;82.88
84055;BME280;74141;51.504;7.122;2024-01-11T09:23:50;102845.19;;;-3.90;81.66
84055;BME280;74141;51.504;7.122;2024-01-11T09:26:16;102857.34;;;-3.72;83.58
84055;BME280;74141;51.504;7.122;2024-01-11T09:28:41;102864.25;;;-3.71;82.42
84055;BME280;74141;51.504;7.122;2024-01-11T09:31:06;102867.13;;;-3.49;82.23
84055;BME280;74141;51.504;7.122;2024-01-11T09:33:32;102855.25;;;-3.63;80.74
84055;BME280;74141;51.504;7.122;2024-01-11T09:35:57;102856.88;;;-3.81;80.25
84055;BME280;74141;51.504;7.122;2024-01-11T09:38:22;102863.63;;;-3.67;79.68
84055;BME280;74141;51.504;7.122;2024-01-11T09:41:16;102876.66;;;-3.48;81.17
84055;BME280;74141;51.504;7.122;2024-01-11T09:43:41;102861.16;;;-3.32;80.71
84055;BME280;74141;51.504;7.122;2024-01-11T09:46:09;102868.66;;;-3.36;80.63
84055;BME280;74141;51.504;7.122;2024-01-11T09:48:36;102867.72;;;-3.21;82.35
84055;BME280;74141;51.504;7.122;2024-01-11T09:51:02;102876.81;;;-3.45;80.52
84055;BME280;74141;51.504;7.122;2024-01-11T09:53:30;102871.00;;;-3.41;81.11
84055;BME280;74141;51.504;7.122;2024-01-11T09:55:58;102885.72;;;-3.38;78.77
84055;BME280;74141;51.504;7.122;2024-01-11T09:58:23;102897.53;;;-3.26;80.17
84055;BME280;74141;51.504;7.122;2024-01-11T10:00:52;102882.69;;;-3.14;79.84
84055;BME280;74141;51.504;7.122;2024-01-11T10:03:19;102881.00;;;-3.13;78.44
84055;BME280;74141;51.504;7.122;2024-01-11T10:05:44;102890.97;;;-3.03;78.47
84055;BME280;74141;51.504;7.122;2024-01-11T10:08:11;102887.72;;;-2.99;78.92
84055;BME280;74141;51.504;7.122;2024-01-11T10:10:36;102888.53;;;-3.00;78.91
84055;BME280;74141;51.504;7.122;2024-01-11T10:13:02;102884.88;;;-2.88;78.05
84055;BME280;74141;51.504;7.122;2024-01-11T10:15:28;102887.16;;;-2.76;77.18
84055;BME280;74141;51.504;7.122;2024-01-11T10:17:53;102891.72;;;-2.71;77.97
84055;BME280;74141;51.504;7.122;2024-01-11T10:20:18;102897.00;;;-2.85;76.85
84055;BME280;74141;51.504;7.122;2024-01-11T10:22:48;102893.06;;;-2.79;76.85
84055;BME280;74141;51.504;7.122;2024-01-11T10:25:15;102895.56;;;-2.63;75.30
84055;BME280;74141;51.504;7.122;2024-01-11T10:27:42;102895.63;;;-2.61;75.25
84055;BME280;74141;51.504;7.122;2024-01-11T10:30:09;102888.94;;;-2.58;74.62
84055;BME280;74141;51.504;7.122;2024-01-11T10:32:34;102888.41;;;-2.51;73.48
84055;BME280;74141;51.504;7.122;2024-01-11T10:35:01;102889.94;;;-2.37;74.89
84055;BME280;74141;51.504;7.122;2024-01-11T10:37:30;102893.78;;;-2.29;73.59
84055;BME280;74141;51.504;7.122;2024-01-11T10:39:57;102887.94;;;-2.25;73.42
84055;BME280;74141;51.504;7.122;2024-01-11T10:42:24;102888.38;;;-2.16;72.84
84055;BME280;74141;51.504;7.122;2024-01-11T10:44:54;102882.56;;;-2.12;72.49
84055;BME280;74141;51.504;7.122;2024-01-11T10:47:21;102883.00;;;-2.20;72.18
84055;BME280;74141;51.504;7.122;2024-01-11T10:49:50;102873.72;;;-1.97;73.09
84055;BME280;74141;51.504;7.122;2024-01-11T10:52:20;102880.94;;;-1.90;70.14
84055;BME280;74141;51.504;7.122;2024-01-11T10:54:48;102886.09;;;-1.71;71.54
84055;BME280;74141;51.504;7.122;2024-01-11T10:57:15;102886.78;;;-1.56;70.62
84055;BME280;74141;51.504;7.122;2024-01-11T10:59:41;102871.91;;;-1.62;69.35
84055;BME280;74141;51.504;7.122;2024-01-11T11:02:09;102869.94;;;-1.48;68.06
84055;BME280;74141;51.504;7.122;2024-01-11T11:04:38;102863.16;;;-1.26;68.55
84055;BME280;74141;51.504;7.122;2024-01-11T11:07:05;102858.78;;;-1.27;69.05
84055;BME280;74141;51.504;7.122;2024-01-11T11:09:34;102845.00;;;-1.07;67.91
84055;BME280;74141;51.504;7.122;2024-01-11T11:12:00;102846.38;;;-0.94;67.91
84055;BME280;74141;51.504;7.122;2024-01-11T11:14:25;102849.22;;;-0.88;66.36
84055;BME280;74141;51.504;7.122;2024-01-11T11:16:51;102836.09;;;-0.93;66.84
84055;BME280;74141;51.504;7.122;2024-01-11T11:19:19;102845.94;;;-0.84;66.15
84055;BME280;74141;51.504;7.122;2024-01-11T11:21:45;102842.59;;;-0.82;65.44
84055;BME280;74141;51.504;7.122;2024-01-11T11:24:12;102849.13;;;-0.69;65.51
84055;BME280;74141;51.504;7.122;2024-01-11T11:26:37;102846.75;;;-0.85;64.91
84055;BME280;74141;51.504;7.122;2024-01-11T11:29:03;102862.66;;;-0.76;65.69
84055;BME280;74141;51.504;7.122;2024-01-11T11:31:45;102862.16;;;-0.88;66.16
84055;BME280;74141;51.504;7.122;2024-01-11T11:34:13;102861.63;;;-0.80;65.23
84055;BME280;74141;51.504;7.122;2024-01-11T11:36:40;102863.31;;;-1.02;67.10
84055;BME280;74141;51.504;7.122;2024-01-11T11:39:13;102862.59;;;-0.98;67.10
84055;BME280;74141;51.504;7.122;2024-01-11T11:41:39;102858.84;;;-0.84;65.31
84055;BME280;74141;51.504;7.122;2024-01-11T11:44:05;102853.63;;;-0.86;64.98
84055;BME280;74141;51.504;7.122;2024-01-11T11:46:34;102844.75;;;-0.92;64.12
84055;BME280;74141;51.504;7.122;2024-01-11T11:48:59;102837.13;;;-0.89;64.09
84055;BME280;74141;51.504;7.122;2024-01-11T11:51:25;102834.78;;;-0.83;64.17
84055;BME280;74141;51.504;7.122;2024-01-11T11:53:51;102828.41;;;-0.91;64.30
84055;BME280;74141;51.504;7.122;2024-01-11T11:56:19;102821.06;;;-0.81;65.55
84055;BME280;74141;51.504;7.122;2024-01-11T11:58:45;102823.91;;;-0.75;64.44
84055;BME280;74141;51.504;7.122;2024-01-11T12:01:11;102831.13;;;-0.66;64.07
84055;BME280;74141;51.504;7.122;2024-01-11T12:03:38;102827.94;;;-0.61;63.90
84055;BME280;74141;51.504;7.122;2024-01-11T12:06:05;102841.03;;;-0.56;65.56
84055;BME280;74141;51.504;7.122;2024-01-11T12:08:31;102841.97;;;-0.54;65.17
84055;BME280;74141;51.504;7.122;2024-01-11T12:10:56;102847.22;;;-0.53;65.16
84055;BME280;74141;51.504;7.122;2024-01-11T12:13:22;102829.22;;;-0.50;63.96
84055;BME280;74141;51.504;7.122;2024-01-11T12:15:48;102823.25;;;-0.47;63.17
84055;BME280;74141;51.504;7.122;2024-01-11T12:18:14;102819.16;;;-0.42;63.01
84055;BME280;74141;51.504;7.122;2024-01-11T12:20:39;102826.94;;;-0.42;62.87
84055;BME280;74141;51.504;7.122;2024-01-11T12:23:04;102817.41;;;-0.43;61.97
84055;BME280;74141;51.504;7.122;2024-01-11T12:25:31;102831.34;;;-0.40;61.80
84055;BME280;74141;51.504;7.122;2024-01-11T12:27:57;102836.81;;;-0.32;60.37
84055;BME280;74141;51.504;7.122;2024-01-11T12:30:23;102830.16;;;-0.26;60.97
84055;BME280;74141;51.504;7.122;2024-01-11T12:32:49;102841.69;;;-0.18;60.63
84055;BME280;74141;51.504;7.122;2024-01-11T12:35:15;102834.09;;;-0.13;60.16
84055;BME280;74141;51.504;7.122;2024-01-11T12:37:41;102827.31;;;-0.10;60.59
84055;BME280;74141;51.504;7.122;2024-01-11T12:40:06;102827.25;;;-0.11;59.93
84055;BME280;74141;51.504;7.122;2024-01-11T12:42:35;102832.56;;;-0.08;59.66
84055;BME280;74141;51.504;7.122;2024-01-11T12:45:00;102837.84;;;-0.05;58.39